sensor_id;sensor_type;location;lat;lon;timestamp;pressure;altitude;pressure_sealevel;temperature;humidity
70909;BME280;58554;52.006;5.926;2023-02-12T00:00:45;102971.31;;;6.59;82.54
70909;BME280;58554;52.006;5.926;2023-02-12T00:03:11;102966.06;;;6.58;82.60
70909;BME280;58554;52.006;5.926;2023-02-12T00:05:41;102968.69;;;6.56;82.51
70909;BME280;58554;52.006;5.926;2023-02-12T00:08:08;102981.81;;;6.56;82.58
70909;BME280;58554;52.006;5.926;2023-02-12T00:10:39;102980.97;;;6.56;82.69
70909;BME280;58554;52.006;5.926;2023-02-12T00:13:06;102974.84;;;6.54;82.56
70909;BME280;58554;52.006;5.926;2023-02-12T00:15:32;102974.84;;;6.54;82.65
70909;BME280;58554;52.006;5.926;2023-02-12T00:17:59;102965.22;;;6.51;82.48
70909;BME280;58554;52.006;5.926;2023-02-12T00:20:25;102966.09;;;6.45;82.37
70909;BME280;58554;52.006;5.926;2023-02-12T00:22:55;102969.66;;;6.38;82.36
70909;BME280;58554;52.006;5.926;2023-02-12T00:25:21;102965.31;;;6.28;82.26
70909;BME280;58554;52.006;5.926;2023-02-12T00:27:48;102967.97;;;6.20;82.57
70909;BME280;58554;52.006;5.926;2023-02-12T00:30:15;102968.88;;;6.12;82.26
70909;BME280;58554;52.006;5.926;2023-02-12T00:32:41;102971.50;;;6.04;82.56
70909;BME280;58554;52.006;5.926;2023-02-12T00:35:10;102972.44;;;5.98;82.69
70909;BME280;58554;52.006;5.926;2023-02-12T00:37:37;102973.31;;;5.94;82.62
70909;BME280;58554;52.006;5.926;2023-02-12T00:40:07;102970.69;;;5.86;82.67
70909;BME280;58554;52.006;5.926;2023-02-12T00:42:34;102968.97;;;5.79;82.63
70909;BME280;58554;52.006;5.926;2023-02-12T00:45:01;102967.22;;;5.74;82.51
70909;BME280;58554;52.006;5.926;2023-02-12T00:47:28;102979.50;;;5.67;82.68
70909;BME280;58554;52.006;5.926;2023-02-12T00:49:55;102969.88;;;5.63;82.80
70909;BME280;58554;52.006;5.926;2023-02-12T00:52:21;102976.00;;;5.59;82.84
70909;BME280;58554;52.006;5.926;2023-02-12T00:54:48;102976.88;;;5.56;82.96
70909;BME280;58554;52.006;5.926;2023-02-12T00:57:17;102975.13;;;5.55;83.00
70909;BME280;58554;52.006;5.926;2023-02-12T00:59:43;102969.88;;;5.55;83.10
70909;BME280;58554;52.006;5.926;2023-02-12T01:02:10;102976.88;;;5.55;83.21
70909;BME280;58554;52.006;5.926;2023-02-12T01:04:37;102972.50;;;5.52;83.10
70909;BME280;58554;52.006;5.926;2023-02-12T01:07:03;102970.78;;;5.48;83.09
70909;BME280;58554;52.006;5.926;2023-02-12T01:09:30;102974.25;;;5.44;83.14
70909;BME280;58554;52.006;5.926;2023-02-12T01:11:56;102974.25;;;5.41;83.22
70909;BME280;58554;52.006;5.926;2023-02-12T01:14:25;102984.75;;;5.39;83.33
70909;BME280;58554;52.006;5.926;2023-02-12T01:16:52;102981.25;;;5.39;83.31
70909;BME280;58554;52.006;5.926;2023-02-12T01:19:18;102980.38;;;5.38;83.34
70909;BME280;58554;52.006;5.926;2023-02-12T01:21:45;102976.00;;;5.37;83.42
70909;BME280;58554;52.006;5.926;2023-02-12T01:24:14;102980.38;;;5.35;83.47
70909;BME280;58554;52.006;5.926;2023-02-12T01:26:40;102976.00;;;5.33;83.19
70909;BME280;58554;52.006;5.926;2023-02-12T01:29:07;102976.00;;;5.31;83.30
70909;BME280;58554;52.006;5.926;2023-02-12T01:31:38;102978.63;;;5.30;83.40
70909;BME280;58554;52.006;5.926;2023-02-12T01:34:06;102976.00;;;5.33;83.55
70909;BME280;58554;52.006;5.926;2023-02-12T01:36:34;102981.25;;;5.34;83.52
70909;BME280;58554;52.006;5.926;2023-02-12T01:39:01;102978.63;;;5.34;83.57
70909;BME280;58554;52.006;5.926;2023-02-12T01:41:32;102980.38;;;5.35;83.67
70909;BME280;58554;52.006;5.926;2023-02-12T01:44:13;102981.25;;;5.37;83.68
70909;BME280;58554;52.006;5.926;2023-02-12T01:46:45;102973.38;;;5.40;83.85
70909;BME280;58554;52.006;5.926;2023-02-12T01:49:16;102968.13;;;5.39;83.79
70909;BME280;58554;52.006;5.926;2023-02-12T01:51:49;102982.13;;;5.41;83.63
70909;BME280;58554;52.006;5.926;2023-02-12T01:54:20;102972.50;;;5.40;83.79
70909;BME280;58554;52.006;5.926;2023-02-12T01:56:49;102969.88;;;5.38;83.73
70909;BME280;58554;52.006;5.926;2023-02-12T01:59:16;102972.50;;;5.37;83.88
70909;BME280;58554;52.006;5.926;2023-02-12T02:01:47;102976.88;;;5.35;83.70
70909;BME280;58554;52.006;5.926;2023-02-12T02:04:18;102979.50;;;5.33;83.78
70909;BME280;58554;52.006;5.926;2023-02-12T02:06:51;102976.00;;;5.33;83.88
70909;BME280;58554;52.006;5.926;2023-02-12T02:09:23;102969.03;;;5.32;83.93
70909;BME280;58554;52.006;5.926;2023-02-12T02:11:51;102973.38;;;5.28;83.88
70909;BME280;58554;52.006;5.926;2023-02-12T02:14:18;102970.75;;;5.26;84.01
70909;BME280;58554;52.006;5.926;2023-02-12T02:16:53;102968.13;;;5.26;83.90
70909;BME280;58554;52.006;5.926;2023-02-12T02:19:39;102967.25;;;5.26;83.97
70909;BME280;58554;52.006;5.926;2023-02-12T02:22:27;102968.13;;;5.26;83.90
70909;BME280;58554;52.006;5.926;2023-02-12T02:25:21;102969.00;;;5.25;83.99
70909;BME280;58554;52.006;5.926;2023-02-12T02:28:11;102966.38;;;5.22;83.89
70909;BME280;58554;52.006;5.926;2023-02-12T02:30:56;102967.25;;;5.21;84.18
70909;BME280;58554;52.006;5.926;2023-02-12T02:33:36;102957.63;;;5.20;84.10
70909;BME280;58554;52.006;5.926;2023-02-12T02:36:14;102957.63;;;5.20;84.13
70909;BME280;58554;52.006;5.926;2023-02-12T02:38:50;102955.03;;;5.17;84.08
70909;BME280;58554;52.006;5.926;2023-02-12T02:41:27;102953.28;;;5.13;83.79
70909;BME280;58554;52.006;5.926;2023-02-12T02:44:03;102953.25;;;5.10;84.06
70909;BME280;58554;52.006;5.926;2023-02-12T02:46:40;102948.03;;;5.07;83.95
70909;BME280;58554;52.006;5.926;2023-02-12T02:49:16;102951.50;;;5.03;83.86
70909;BME280;58554;52.006;5.926;2023-02-12T02:51:51;102949.75;;;4.99;83.80
70909;BME280;58554;52.006;5.926;2023-02-12T02:54:25;102949.72;;;4.93;83.79
70909;BME280;58554;52.006;5.926;2023-02-12T02:56:59;102950.59;;;4.85;83.81
70909;BME280;58554;52.006;5.926;2023-02-12T02:59:36;102946.19;;;4.78;83.87
70909;BME280;58554;52.006;5.926;2023-02-12T03:02:15;102958.41;;;4.70;83.77
70909;BME280;58554;52.006;5.926;2023-02-12T03:04:49;102958.41;;;4.67;83.88
70909;BME280;58554;52.006;5.926;2023-02-12T03:07:24;102949.66;;;4.62;83.69
70909;BME280;58554;52.006;5.926;2023-02-12T03:09:59;102952.28;;;4.59;83.97
70909;BME280;58554;52.006;5.926;2023-02-12T03:12:37;102951.38;;;4.57;84.17
70909;BME280;58554;52.006;5.926;2023-02-12T03:15:17;102948.75;;;4.54;84.21
70909;BME280;58554;52.006;5.926;2023-02-12T03:17:52;102953.09;;;4.52;84.13
70909;BME280;58554;52.006;5.926;2023-02-12T03:20:22;102949.63;;;4.51;84.36
70909;BME280;58554;52.006;5.926;2023-02-12T03:22:54;102945.25;;;4.48;84.25
70909;BME280;58554;52.006;5.926;2023-02-12T03:25:33;102960.09;;;4.50;84.37
70909;BME280;58554;52.006;5.926;2023-02-12T03:28:08;102950.50;;;4.48;84.51
70909;BME280;58554;52.006;5.926;2023-02-12T03:30:44;102952.22;;;4.46;84.63
70909;BME280;58554;52.006;5.926;2023-02-12T03:33:28;102946.09;;;4.47;84.50
70909;BME280;58554;52.006;5.926;2023-02-12T03:36:06;102951.34;;;4.47;84.48
70909;BME280;58554;52.006;5.926;2023-02-12T03:38:48;102953.97;;;4.47;84.56
70909;BME280;58554;52.006;5.926;2023-02-12T03:41:21;102950.50;;;4.50;84.74
70909;BME280;58554;52.006;5.926;2023-02-12T03:44:01;102946.13;;;4.54;84.71
70909;BME280;58554;52.006;5.926;2023-02-12T03:46:40;102961.00;;;4.55;84.53
70909;BME280;58554;52.006;5.926;2023-02-12T03:49:22;102956.59;;;4.54;84.82
70909;BME280;58554;52.006;5.926;2023-02-12T03:51:57;102961.00;;;4.55;84.73
70909;BME280;58554;52.006;5.926;2023-02-12T03:54:24;102964.47;;;4.55;84.84
70909;BME280;58554;52.006;5.926;2023-02-12T03:56:54;102964.50;;;4.57;84.84
70909;BME280;58554;52.006;5.926;2023-02-12T03:59:27;102961.84;;;4.58;84.93
70909;BME280;58554;52.006;5.926;2023-02-12T04:01:57;102971.47;;;4.59;84.86
70909;BME280;58554;52.006;5.926;2023-02-12T04:04:27;102971.47;;;4.62;85.16
70909;BME280;58554;52.006;5.926;2023-02-12T04:06:55;102974.97;;;4.64;84.83
70909;BME280;58554;52.006;5.926;2023-02-12T04:09:25;102968.00;;;4.68;85.16
70909;BME280;58554;52.006;5.926;2023-02-12T04:12:01;102973.25;;;4.70;85.16
70909;BME280;58554;52.006;5.926;2023-02-12T04:14:45;102974.16;;;4.73;85.07
70909;BME280;58554;52.006;5.926;2023-02-12T04:17:23;102983.78;;;4.77;85.10
70909;BME280;58554;52.006;5.926;2023-02-12T04:20:05;102982.03;;;4.79;84.96
70909;BME280;58554;52.006;5.926;2023-02-12T04:22:47;102981.16;;;4.82;84.98
70909;BME280;58554;52.006;5.926;2023-02-12T04:25:31;102975.03;;;4.84;85.14
70909;BME280;58554;52.006;5.926;2023-02-12T04:28:14;102989.91;;;4.88;85.13
70909;BME280;58554;52.006;5.926;2023-02-12T04:30:55;102988.16;;;4.92;85.01
70909;BME280;58554;52.006;5.926;2023-02-12T04:33:25;102990.81;;;4.95;84.95
70909;BME280;58554;52.006;5.926;2023-02-12T04:36:12;102987.34;;;4.96;85.06
70909;BME280;58554;52.006;5.926;2023-02-12T04:38:46;102991.72;;;4.99;84.97
70909;BME280;58554;52.006;5.926;2023-02-12T04:41:18;102989.97;;;5.01;84.98
70909;BME280;58554;52.006;5.926;2023-02-12T04:43:45;102991.72;;;5.03;84.82
70909;BME280;58554;52.006;5.926;2023-02-12T04:46:12;102995.22;;;5.05;84.85
70909;BME280;58554;52.006;5.926;2023-02-12T04:48:51;103003.09;;;5.08;84.72
70909;BME280;58554;52.006;5.926;2023-02-12T04:51:23;103006.56;;;5.12;84.86
70909;BME280;58554;52.006;5.926;2023-02-12T04:53:49;103003.94;;;5.12;84.73
70909;BME280;58554;52.006;5.926;2023-02-12T04:56:16;103003.97;;;5.14;84.93
70909;BME280;58554;52.006;5.926;2023-02-12T04:58:43;102999.59;;;5.16;84.62
70909;BME280;58554;52.006;5.926;2023-02-12T05:01:09;103013.59;;;5.18;84.70
70909;BME280;58554;52.006;5.926;2023-02-12T05:03:36;103000.47;;;5.19;84.83
70909;BME280;58554;52.006;5.926;2023-02-12T05:06:03;103002.22;;;5.20;84.78
70909;BME280;58554;52.006;5.926;2023-02-12T05:08:33;103001.38;;;5.21;84.58
70909;BME280;58554;52.006;5.926;2023-02-12T05:11:03;103000.47;;;5.22;84.68
70909;BME280;58554;52.006;5.926;2023-02-12T05:13:30;103007.47;;;5.25;84.52
70909;BME280;58554;52.006;5.926;2023-02-12T05:15:57;103010.97;;;5.25;84.76
70909;BME280;58554;52.006;5.926;2023-02-12T05:18:24;103008.34;;;5.25;84.77
70909;BME280;58554;52.006;5.926;2023-02-12T05:20:55;103009.25;;;5.27;84.64
70909;BME280;58554;52.006;5.926;2023-02-12T05:23:22;103009.25;;;5.27;84.60
70909;BME280;58554;52.006;5.926;2023-02-12T05:25:53;103006.59;;;5.26;84.49
70909;BME280;58554;52.006;5.926;2023-02-12T05:28:22;103002.22;;;5.26;84.79
70909;BME280;58554;52.006;5.926;2023-02-12T05:30:49;103004.00;;;5.27;84.53
70909;BME280;58554;52.006;5.926;2023-02-12T05:33:16;103002.25;;;5.30;84.60
70909;BME280;58554;52.006;5.926;2023-02-12T05:35:43;103004.00;;;5.32;84.54
70909;BME280;58554;52.006;5.926;2023-02-12T05:38:10;103009.22;;;5.32;84.43
70909;BME280;58554;52.006;5.926;2023-02-12T05:40:36;103010.09;;;5.33;84.51
70909;BME280;58554;52.006;5.926;2023-02-12T05:43:05;103016.22;;;5.35;84.72
70909;BME280;58554;52.006;5.926;2023-02-12T05:45:32;103013.59;;;5.35;84.60
70909;BME280;58554;52.006;5.926;2023-02-12T05:47:59;103010.09;;;5.37;84.32
70909;BME280;58554;52.006;5.926;2023-02-12T05:50:25;103011.00;;;5.38;84.44
70909;BME280;58554;52.006;5.926;2023-02-12T05:52:52;103017.97;;;5.39;84.30
70909;BME280;58554;52.006;5.926;2023-02-12T05:55:18;103009.25;;;5.40;84.40
70909;BME280;58554;52.006;5.926;2023-02-12T05:57:45;103010.13;;;5.42;84.11
70909;BME280;58554;52.006;5.926;2023-02-12T06:00:15;103003.13;;;5.44;84.19
70909;BME280;58554;52.006;5.926;2023-02-12T06:02:42;103012.72;;;5.45;84.09
70909;BME280;58554;52.006;5.926;2023-02-12T06:05:08;103010.97;;;5.47;84.21
70909;BME280;58554;52.006;5.926;2023-02-12T06:07:35;103007.50;;;5.48;84.44
70909;BME280;58554;52.006;5.926;2023-02-12T06:10:02;103010.13;;;5.48;84.32
70909;BME280;58554;52.006;5.926;2023-02-12T06:12:29;103009.22;;;5.49;83.97
70909;BME280;58554;52.006;5.926;2023-02-12T06:14:56;103015.34;;;5.51;84.19
70909;BME280;58554;52.006;5.926;2023-02-12T06:17:25;103016.22;;;5.53;84.06
70909;BME280;58554;52.006;5.926;2023-02-12T06:19:52;103018.88;;;5.55;84.02
70909;BME280;58554;52.006;5.926;2023-02-12T06:22:20;103026.75;;;5.56;84.03
70909;BME280;58554;52.006;5.926;2023-02-12T06:24:46;103026.72;;;5.58;83.82
70909;BME280;58554;52.006;5.926;2023-02-12T06:27:15;103021.47;;;5.59;83.75
70909;BME280;58554;52.006;5.926;2023-02-12T06:29:43;103022.34;;;5.60;83.88
70909;BME280;58554;52.006;5.926;2023-02-12T06:32:14;103026.75;;;5.61;83.91
70909;BME280;58554;52.006;5.926;2023-02-12T06:34:47;103024.13;;;5.61;84.00
70909;BME280;58554;52.006;5.926;2023-02-12T06:37:27;103027.59;;;5.61;83.97
70909;BME280;58554;52.006;5.926;2023-02-12T06:39:56;103017.97;;;5.60;83.92
70909;BME280;58554;52.006;5.926;2023-02-12T06:42:25;103017.13;;;5.63;83.75
70909;BME280;58554;52.006;5.926;2023-02-12T06:44:58;103014.47;;;5.64;83.76
70909;BME280;58554;52.006;5.926;2023-02-12T06:47:27;103019.72;;;5.64;83.73
70909;BME280;58554;52.006;5.926;2023-02-12T06:49:57;103025.88;;;5.65;83.77
70909;BME280;58554;52.006;5.926;2023-02-12T06:52:33;103024.97;;;5.64;83.76
70909;BME280;58554;52.006;5.926;2023-02-12T06:55:02;103027.59;;;5.66;84.02
70909;BME280;58554;52.006;5.926;2023-02-12T06:57:36;103038.97;;;5.68;83.72
70909;BME280;58554;52.006;5.926;2023-02-12T07:00:06;103037.22;;;5.68;83.73
70909;BME280;58554;52.006;5.926;2023-02-12T07:02:36;103031.97;;;5.72;83.83
70909;BME280;58554;52.006;5.926;2023-02-12T07:05:21;103038.09;;;5.74;83.85
70909;BME280;58554;52.006;5.926;2023-02-12T07:07:52;103039.00;;;5.77;83.76
70909;BME280;58554;52.006;5.926;2023-02-12T07:13:07;103037.22;;;5.81;83.76
70909;BME280;58554;52.006;5.926;2023-02-12T07:15:39;103038.97;;;5.82;83.69
70909;BME280;58554;52.006;5.926;2023-02-12T07:18:05;103038.97;;;5.83;83.54
70909;BME280;58554;52.006;5.926;2023-02-12T07:20:39;103041.59;;;5.83;83.62
70909;BME280;58554;52.006;5.926;2023-02-12T07:23:08;103045.97;;;5.86;83.67
70909;BME280;58554;52.006;5.926;2023-02-12T07:25:37;103050.34;;;5.88;83.51
70909;BME280;58554;52.006;5.926;2023-02-12T07:28:04;103055.59;;;5.88;83.65
70909;BME280;58554;52.006;5.926;2023-02-12T07:30:36;103054.72;;;5.91;83.52
70909;BME280;58554;52.006;5.926;2023-02-12T07:33:04;103062.59;;;5.94;83.37
70909;BME280;58554;52.006;5.926;2023-02-12T07:35:31;103059.94;;;5.96;83.54
70909;BME280;58554;52.006;5.926;2023-02-12T07:38:03;103059.09;;;5.97;83.38
70909;BME280;58554;52.006;5.926;2023-02-12T07:40:44;103066.09;;;6.01;83.22
70909;BME280;58554;52.006;5.926;2023-02-12T07:43:18;103066.94;;;6.01;83.28
70909;BME280;58554;52.006;5.926;2023-02-12T07:45:48;103072.22;;;6.04;83.36
70909;BME280;58554;52.006;5.926;2023-02-12T07:48:15;103064.31;;;6.07;83.27
70909;BME280;58554;52.006;5.926;2023-02-12T07:50:43;103066.06;;;6.12;83.19
70909;BME280;58554;52.006;5.926;2023-02-12T07:53:17;103072.19;;;6.14;83.14
70909;BME280;58554;52.006;5.926;2023-02-12T07:55:44;103076.56;;;6.16;83.04
70909;BME280;58554;52.006;5.926;2023-02-12T07:58:11;103069.56;;;6.17;82.89
70909;BME280;58554;52.006;5.926;2023-02-12T08:00:40;103079.19;;;6.21;82.71
70909;BME280;58554;52.006;5.926;2023-02-12T08:03:09;103077.41;;;6.23;82.71
70909;BME280;58554;52.006;5.926;2023-02-12T08:05:41;103080.91;;;6.25;82.61
70909;BME280;58554;52.006;5.926;2023-02-12T08:08:26;103080.06;;;6.27;82.71
70909;BME280;58554;52.006;5.926;2023-02-12T08:10:55;103082.66;;;6.30;82.64
70909;BME280;58554;52.006;5.926;2023-02-12T08:13:21;103082.66;;;6.32;82.41
70909;BME280;58554;52.006;5.926;2023-02-12T08:15:48;103087.03;;;6.33;82.22
70909;BME280;58554;52.006;5.926;2023-02-12T08:18:28;103091.44;;;6.36;82.27
70909;BME280;58554;52.006;5.926;2023-02-12T08:21:01;103099.28;;;6.37;82.17
70909;BME280;58554;52.006;5.926;2023-02-12T08:23:33;103092.28;;;6.39;82.30
70909;BME280;58554;52.006;5.926;2023-02-12T08:26:16;103096.69;;;6.42;82.30
70909;BME280;58554;52.006;5.926;2023-02-12T08:28:56;103099.28;;;6.45;82.23
70909;BME280;58554;52.006;5.926;2023-02-12T08:31:26;103099.28;;;6.46;82.10
70909;BME280;58554;52.006;5.926;2023-02-12T08:34:09;103105.38;;;6.52;81.93
70909;BME280;58554;52.006;5.926;2023-02-12T08:36:51;103108.03;;;6.53;82.03
70909;BME280;58554;52.006;5.926;2023-02-12T08:39:25;103105.41;;;6.55;81.87
70909;BME280;58554;52.006;5.926;2023-02-12T08:41:57;103106.25;;;6.60;82.11
70909;BME280;58554;52.006;5.926;2023-02-12T08:44:25;103116.75;;;6.63;82.02
70909;BME280;58554;52.006;5.926;2023-02-12T08:47:00;103114.09;;;6.66;81.78
70909;BME280;58554;52.006;5.926;2023-02-12T08:49:28;103111.47;;;6.67;81.79
70909;BME280;58554;52.006;5.926;2023-02-12T08:51:58;103121.09;;;6.70;81.78
70909;BME280;58554;52.006;5.926;2023-02-12T08:54:37;103114.97;;;6.73;81.64
70909;BME280;58554;52.006;5.926;2023-02-12T08:57:07;103121.09;;;6.75;81.65
70909;BME280;58554;52.006;5.926;2023-02-12T08:59:39;103127.22;;;6.78;81.73
70909;BME280;58554;52.006;5.926;2023-02-12T09:02:15;103126.31;;;6.81;81.45
70909;BME280;58554;52.006;5.926;2023-02-12T09:04:46;103121.06;;;6.84;81.44
70909;BME280;58554;52.006;5.926;2023-02-12T09:07:13;103122.81;;;6.86;81.45
70909;BME280;58554;52.006;5.926;2023-02-12T09:09:44;103122.81;;;6.88;81.55
70909;BME280;58554;52.006;5.926;2023-02-12T09:12:14;103136.81;;;6.91;81.42
70909;BME280;58554;52.006;5.926;2023-02-12T09:14:42;103135.03;;;6.98;81.46
70909;BME280;58554;52.006;5.926;2023-02-12T09:17:16;103122.72;;;7.02;81.47
70909;BME280;58554;52.006;5.926;2023-02-12T09:19:44;103128.00;;;7.05;81.18
70909;BME280;58554;52.006;5.926;2023-02-12T09:22:11;103139.38;;;7.08;81.23
70909;BME280;58554;52.006;5.926;2023-02-12T09:24:46;103139.34;;;7.11;81.26
70909;BME280;58554;52.006;5.926;2023-02-12T09:27:13;103137.59;;;7.17;81.33
70909;BME280;58554;52.006;5.926;2023-02-12T09:29:47;103134.94;;;7.20;80.83
70909;BME280;58554;52.006;5.926;2023-02-12T09:32:14;103127.91;;;7.20;80.48
70909;BME280;58554;52.006;5.926;2023-02-12T09:34:41;103134.94;;;7.21;80.64
70909;BME280;58554;52.006;5.926;2023-02-12T09:37:10;103134.91;;;7.26;80.60
70909;BME280;58554;52.006;5.926;2023-02-12T09:39:39;103133.13;;;7.28;80.45
70909;BME280;58554;52.006;5.926;2023-02-12T09:42:35;103129.59;;;7.30;80.79
70909;BME280;58554;52.006;5.926;2023-02-12T09:45:24;103133.09;;;7.36;80.62
70909;BME280;58554;52.006;5.926;2023-02-12T09:47:57;103132.22;;;7.38;80.52
70909;BME280;58554;52.006;5.926;2023-02-12T09:50:39;103129.56;;;7.37;80.22
70909;BME280;58554;52.006;5.926;2023-02-12T09:53:15;103129.56;;;7.38;80.30
70909;BME280;58554;52.006;5.926;2023-02-12T09:55:45;103137.47;;;7.38;80.31
70909;BME280;58554;52.006;5.926;2023-02-12T09:58:22;103136.59;;;7.41;80.47
70909;BME280;58554;52.006;5.926;2023-02-12T10:01:10;103144.47;;;7.45;80.07
70909;BME280;58554;52.006;5.926;2023-02-12T10:03:44;103133.94;;;7.45;79.92
70909;BME280;58554;52.006;5.926;2023-02-12T10:06:16;103133.94;;;7.47;80.11
70909;BME280;58554;52.006;5.926;2023-02-12T10:09:12;103137.47;;;7.46;79.76
70909;BME280;58554;52.006;5.926;2023-02-12T10:12:18;103141.84;;;7.47;79.77
70909;BME280;58554;52.006;5.926;2023-02-12T10:15:11;103140.94;;;7.49;79.65
70909;BME280;58554;52.006;5.926;2023-02-12T10:17:50;103134.81;;;7.52;79.68
70909;BME280;58554;52.006;5.926;2023-02-12T10:23:57;103134.72;;;7.60;79.90
70909;BME280;58554;52.006;5.926;2023-02-12T10:26:37;103137.31;;;7.64;79.81
70909;BME280;58554;52.006;5.926;2023-02-12T10:29:14;103130.28;;;7.66;79.49
70909;BME280;58554;52.006;5.926;2023-02-12T10:31:51;103127.66;;;7.66;79.50
70909;BME280;58554;52.006;5.926;2023-02-12T10:34:22;103136.44;;;7.67;79.20
70909;BME280;58554;52.006;5.926;2023-02-12T10:37:03;103130.31;;;7.65;78.92
70909;BME280;58554;52.006;5.926;2023-02-12T10:39:49;103132.91;;;7.66;79.35
70909;BME280;58554;52.006;5.926;2023-02-12T10:42:31;103132.91;;;7.71;79.27
70909;BME280;58554;52.006;5.926;2023-02-12T10:45:08;103134.63;;;7.74;79.19
70909;BME280;58554;52.006;5.926;2023-02-12T10:47:45;103139.00;;;7.78;78.91
70909;BME280;58554;52.006;5.926;2023-02-12T10:50:22;103133.72;;;7.78;78.83
70909;BME280;58554;52.006;5.926;2023-02-12T10:53:01;103128.47;;;7.78;78.84
70909;BME280;58554;52.006;5.926;2023-02-12T10:55:32;103138.09;;;7.80;78.82
70909;BME280;58554;52.006;5.926;2023-02-12T10:58:02;103130.19;;;7.79;78.65
70909;BME280;58554;52.006;5.926;2023-02-12T11:00:34;103141.59;;;7.81;78.96
70909;BME280;58554;52.006;5.926;2023-02-12T11:03:19;103131.06;;;7.84;79.07
70909;BME280;58554;52.006;5.926;2023-02-12T11:05:48;103137.19;;;7.86;78.65
70909;BME280;58554;52.006;5.926;2023-02-12T11:08:33;103138.03;;;7.88;78.73
70909;BME280;58554;52.006;5.926;2023-02-12T11:11:09;103129.28;;;7.86;78.80
70909;BME280;58554;52.006;5.926;2023-02-12T11:13:41;103127.50;;;7.86;78.55
70909;BME280;58554;52.006;5.926;2023-02-12T11:16:27;103128.38;;;7.88;78.72
70909;BME280;58554;52.006;5.926;2023-02-12T11:19:04;103130.09;;;7.91;78.33
70909;BME280;58554;52.006;5.926;2023-02-12T11:21:39;103126.59;;;7.92;78.24
70909;BME280;58554;52.006;5.926;2023-02-12T11:24:30;103137.09;;;7.95;78.27
70909;BME280;58554;52.006;5.926;2023-02-12T11:27:29;103124.81;;;7.93;77.31
70909;BME280;58554;52.006;5.926;2023-02-12T11:30:13;103128.31;;;7.93;77.79
70909;BME280;58554;52.006;5.926;2023-02-12T11:32:49;103132.72;;;7.91;77.76
70909;BME280;58554;52.006;5.926;2023-02-12T11:35:22;103116.94;;;7.93;77.90
70909;BME280;58554;52.006;5.926;2023-02-12T11:37:54;103119.56;;;7.94;77.67
70909;BME280;58554;52.006;5.926;2023-02-12T11:40:29;103109.88;;;7.96;77.67
70909;BME280;58554;52.006;5.926;2023-02-12T11:43:01;103112.47;;;7.98;77.46
70909;BME280;58554;52.006;5.926;2023-02-12T11:45:40;103109.84;;;7.99;77.07
70909;BME280;58554;52.006;5.926;2023-02-12T11:48:16;103107.25;;;7.96;76.11
70909;BME280;58554;52.006;5.926;2023-02-12T11:50:50;103107.25;;;7.93;76.32
70909;BME280;58554;52.006;5.926;2023-02-12T11:53:22;103102.88;;;7.92;76.25
70909;BME280;58554;52.006;5.926;2023-02-12T11:55:56;103104.63;;;7.93;76.47
70909;BME280;58554;52.006;5.926;2023-02-12T11:58:26;103104.56;;;7.98;76.37
70909;BME280;58554;52.006;5.926;2023-02-12T12:01:00;103106.28;;;8.03;76.52
70909;BME280;58554;52.006;5.926;2023-02-12T12:03:44;103098.31;;;8.09;76.47
70909;BME280;58554;52.006;5.926;2023-02-12T12:06:24;103100.03;;;8.17;76.67
70909;BME280;58554;52.006;5.926;2023-02-12T12:09:02;103104.34;;;8.24;76.49
70909;BME280;58554;52.006;5.926;2023-02-12T12:11:40;103093.72;;;8.30;76.51
70909;BME280;58554;52.006;5.926;2023-02-12T12:14:23;103094.53;;;8.37;76.47
70909;BME280;58554;52.006;5.926;2023-02-12T12:16:58;103077.78;;;8.42;76.09
70909;BME280;58554;52.006;5.926;2023-02-12T12:19:36;103070.69;;;8.47;76.01
70909;BME280;58554;52.006;5.926;2023-02-12T12:22:14;103068.00;;;8.52;76.15
70909;BME280;58554;52.006;5.926;2023-02-12T12:24:52;103065.28;;;8.58;75.80
70909;BME280;58554;52.006;5.926;2023-02-12T12:27:28;103057.34;;;8.61;75.62
70909;BME280;58554;52.006;5.926;2023-02-12T12:30:04;103056.44;;;8.64;75.31
70909;BME280;58554;52.006;5.926;2023-02-12T12:32:41;103052.91;;;8.65;74.77
70909;BME280;58554;52.006;5.926;2023-02-12T12:35:16;103058.13;;;8.69;75.38
70909;BME280;58554;52.006;5.926;2023-02-12T12:37:59;103052.78;;;8.74;75.13
70909;BME280;58554;52.006;5.926;2023-02-12T12:40:45;103057.13;;;8.78;74.73
70909;BME280;58554;52.006;5.926;2023-02-12T12:43:26;103051.84;;;8.81;74.79
70909;BME280;58554;52.006;5.926;2023-02-12T12:49:23;103057.03;;;8.86;74.50
70909;BME280;58554;52.006;5.926;2023-02-12T12:52:19;103059.63;;;8.89;74.48
70909;BME280;58554;52.006;5.926;2023-02-12T12:55:25;103047.28;;;8.92;74.75
70909;BME280;58554;52.006;5.926;2023-02-12T12:58:19;103051.63;;;8.95;74.69
70909;BME280;58554;52.006;5.926;2023-02-12T13:01:09;103043.69;;;8.97;74.58
70909;BME280;58554;52.006;5.926;2023-02-12T13:07:29;103041.03;;;8.98;74.65
70909;BME280;58554;52.006;5.926;2023-02-12T13:10:22;103034.84;;;8.99;74.43
70909;BME280;58554;52.006;5.926;2023-02-12T13:13:12;103028.72;;;8.99;74.30
70909;BME280;58554;52.006;5.926;2023-02-12T13:15:54;103031.34;;;8.99;74.07
70909;BME280;58554;52.006;5.926;2023-02-12T13:18:41;103024.28;;;9.01;73.79
70909;BME280;58554;52.006;5.926;2023-02-12T13:21:24;103030.50;;;8.98;73.82
70909;BME280;58554;52.006;5.926;2023-02-12T13:24:04;103029.59;;;8.98;73.78
70909;BME280;58554;52.006;5.926;2023-02-12T13:26:49;103029.56;;;8.99;73.94
70909;BME280;58554;52.006;5.926;2023-02-12T13:29:23;103033.06;;;9.01;73.61
70909;BME280;58554;52.006;5.926;2023-02-12T13:31:56;103022.53;;;9.00;73.31
70909;BME280;58554;52.006;5.926;2023-02-12T13:34:29;103024.31;;;8.98;73.24
70909;BME280;58554;52.006;5.926;2023-02-12T13:37:00;103020.81;;;8.96;73.42
70909;BME280;58554;52.006;5.926;2023-02-12T13:39:31;103027.88;;;8.95;73.57
70909;BME280;58554;52.006;5.926;2023-02-12T13:42:14;103022.59;;;8.97;73.27
70909;BME280;58554;52.006;5.926;2023-02-12T13:44:56;103019.09;;;8.95;73.28
70909;BME280;58554;52.006;5.926;2023-02-12T13:47:36;103012.06;;;8.93;73.03